createdAt,value
2018-09-19T00:01:40.456Z,99967.05
2018-09-19T00:04:07.957Z,99964.02
2018-09-19T00:06:35.518Z,99964.70
2018-09-19T00:09:04.192Z,99963.69
2018-09-19T00:11:33.376Z,99965.56
2018-09-19T00:14:00.902Z,99970.44
2018-09-19T00:16:30.084Z,99976.69
2018-09-19T00:18:59.034Z,99973.66
2018-09-19T00:21:27.537Z,99976.53
2018-09-19T00:23:55.036Z,99974.48
2018-09-19T00:26:22.982Z,99975.67
2018-09-19T00:28:51.072Z,99976.49
2018-09-19T00:31:18.613Z,99975.47
2018-09-19T00:33:47.481Z,99974.65
2018-09-19T00:36:15.683Z,99982.59
2018-09-19T00:38:43.183Z,99984.83
2018-09-19T00:41:11.123Z,99988.05
2018-09-19T00:43:38.711Z,99994.00
2018-09-19T00:46:06.227Z,99995.53
2018-09-19T00:48:33.765Z,99998.23
2018-09-19T00:51:02.599Z,99999.60
2018-09-19T00:53:30.133Z,99996.56
2018-09-19T00:56:00.849Z,99996.06
2018-09-19T00:58:29.247Z,99993.71
2018-09-19T01:00:57.252Z,100000.14
2018-09-19T01:03:24.814Z,99999.12
2018-09-19T01:05:52.619Z,100005.88
2018-09-19T01:08:20.795Z,99998.97
2018-09-19T01:10:49.708Z,99994.59
2018-09-19T01:13:17.217Z,100000.30
2018-09-19T01:15:47.163Z,100000.29
2018-09-19T01:18:15.160Z,100006.19
2018-09-19T01:20:43.764Z,100008.37
2018-09-19T01:23:11.917Z,100013.25
2018-09-19T01:25:39.440Z,100016.45
2018-09-19T01:28:06.944Z,100020.17
2018-09-19T01:30:34.440Z,100019.48
2018-09-19T01:33:03.640Z,100026.55
2018-09-19T01:35:31.539Z,100034.14
2018-09-19T01:37:59.060Z,100032.97
2018-09-19T01:40:26.581Z,100025.89
2018-09-19T01:42:54.123Z,100028.76
2018-09-19T01:45:22.166Z,100033.99
2018-09-19T01:47:50.203Z,100030.11
2018-09-19T01:50:17.710Z,100028.91
2018-09-19T01:52:45.223Z,100030.59
2018-09-19T01:55:13.815Z,100027.73
2018-09-19T01:57:42.405Z,100028.56
2018-09-19T02:00:10.908Z,100030.44
2018-09-19T02:02:39.078Z,100034.11
2018-09-19T02:05:06.610Z,100030.91
2018-09-19T02:07:34.175Z,100034.61
2018-09-19T02:10:02.223Z,100026.20
2018-09-19T02:12:30.201Z,100030.23
2018-09-19T02:14:57.723Z,100031.41
2018-09-19T02:17:25.231Z,100026.85
2018-09-19T02:19:52.724Z,100033.94
2018-09-19T02:22:20.604Z,100042.36
2018-09-19T02:24:48.111Z,100047.04
2018-09-19T02:27:15.603Z,100053.44
2018-09-19T02:29:43.151Z,100045.17
2018-09-19T02:32:11.119Z,100045.37
2018-09-19T02:34:38.817Z,100050.91
2018-09-19T02:37:06.329Z,100054.43
2018-09-19T02:39:34.238Z,100055.44
2018-09-19T02:42:01.766Z,100054.41
2018-09-19T02:44:29.288Z,100049.36
2018-09-19T02:46:56.832Z,100049.70
2018-09-19T02:49:24.830Z,100046.64
2018-09-19T02:51:52.462Z,100049.30
2018-09-19T02:54:19.991Z,100049.30
2018-09-19T02:56:47.564Z,100048.08
2018-09-19T02:59:15.100Z,100050.40
2018-09-19T03:01:42.572Z,100042.14
2018-09-19T03:04:10.079Z,100045.84
2018-09-19T03:06:38.101Z,100037.58
2018-09-19T03:09:05.643Z,100037.39
2018-09-19T03:11:33.151Z,100036.05
2018-09-19T03:14:00.683Z,100025.95
2018-09-19T03:16:28.531Z,100020.72
2018-09-19T03:18:56.047Z,100024.58
2018-09-19T03:21:23.572Z,100027.27
2018-09-19T03:23:51.525Z,100032.16
2018-09-19T03:26:20.035Z,100037.17
2018-09-19T03:28:47.559Z,100034.33
2018-09-19T03:31:15.399Z,100028.09
2018-09-19T03:33:42.871Z,100029.77
2018-09-19T03:36:10.615Z,100031.41
2018-09-19T03:38:38.595Z,100030.73
2018-09-19T03:41:09.752Z,100019.45
2018-09-19T03:43:37.288Z,100023.82
2018-09-19T03:46:06.310Z,100031.86
2018-09-19T03:48:33.791Z,100027.63
2018-09-19T03:51:02.219Z,100026.42
2018-09-19T03:53:29.748Z,100027.88
2018-09-19T03:55:57.562Z,100038.09
2018-09-19T03:58:25.046Z,100035.35
2018-09-19T04:00:52.587Z,100034.14
2018-09-19T04:03:20.424Z,100026.70
2018-09-19T04:05:47.929Z,100031.80
2018-09-19T04:08:15.616Z,100028.77
2018-09-19T04:10:43.501Z,100035.62
2018-09-19T04:13:11.673Z,100042.20
2018-09-19T04:15:39.194Z,100040.19
2018-09-19T04:18:06.904Z,100040.58
2018-09-19T04:20:34.831Z,100040.63
2018-09-19T04:23:02.473Z,100037.64
2018-09-19T04:25:30.022Z,100040.20
2018-09-19T04:27:57.544Z,100041.07
2018-09-19T04:30:25.030Z,100043.13
2018-09-19T04:32:54.450Z,100045.83
2018-09-19T04:35:22.914Z,100046.17
2018-09-19T04:37:50.448Z,100060.14
2018-09-19T04:40:18.403Z,100061.30
2018-09-19T04:42:45.898Z,100064.70
2018-09-19T04:45:13.438Z,100060.34
2018-09-19T04:47:41.423Z,100061.20
2018-09-19T04:50:08.966Z,100056.02
2018-09-19T04:52:36.537Z,100045.94
2018-09-19T04:55:05.451Z,100047.09
2018-09-19T04:57:33.044Z,100052.12
2018-09-19T05:00:00.589Z,100064.84
2018-09-19T05:02:28.495Z,100052.97
2018-09-19T05:04:56.018Z,100060.64
2018-09-19T05:07:23.620Z,100058.34
2018-09-19T05:09:51.451Z,100054.92
2018-09-19T05:12:19.059Z,100056.73
2018-09-19T05:14:46.578Z,100057.55
2018-09-19T05:17:14.451Z,100051.48
2018-09-19T05:19:42.015Z,100045.09
2018-09-19T05:22:09.563Z,100055.13
2018-09-19T05:24:37.531Z,100049.59
2018-09-19T05:27:05.096Z,100059.82
2018-09-19T05:29:32.601Z,100060.34
2018-09-19T05:32:00.598Z,100057.65
2018-09-19T05:34:28.140Z,100062.51
2018-09-19T05:36:55.676Z,100067.54
2018-09-19T05:39:24.328Z,100063.85
2018-09-19T05:41:53.344Z,100065.71
2018-09-19T05:44:20.891Z,100072.43
2018-09-19T05:46:48.690Z,100071.25
2018-09-19T05:49:16.264Z,100068.62
2018-09-19T05:51:43.780Z,100065.46
2018-09-19T05:54:11.712Z,100065.00
2018-09-19T05:56:39.245Z,100062.36
2018-09-19T05:59:06.777Z,100058.34
2018-09-19T06:01:34.740Z,100061.11
2018-09-19T06:04:02.267Z,100062.12
2018-09-19T06:06:29.807Z,100060.13
2018-09-19T06:08:57.674Z,100069.58
2018-09-19T06:11:25.176Z,100073.33
2018-09-19T06:13:52.713Z,100071.37
2018-09-19T06:16:20.650Z,100071.97
2018-09-19T06:18:48.183Z,100063.47
2018-09-19T06:21:15.738Z,100062.70
2018-09-19T06:23:45.216Z,100052.34
2018-09-19T06:26:12.764Z,100057.06
2018-09-19T06:28:40.328Z,100049.69
2018-09-19T06:31:08.518Z,100045.31
2018-09-19T06:33:36.104Z,100045.13
2018-09-19T06:36:03.645Z,100040.39
2018-09-19T06:38:31.565Z,100039.04
2018-09-19T06:40:59.187Z,100039.23
2018-09-19T06:43:26.679Z,100037.91
2018-09-19T06:45:54.521Z,100042.48
2018-09-19T06:48:22.035Z,100043.03
2018-09-19T06:50:49.539Z,100028.80
2018-09-19T06:53:17.495Z,100034.73
2018-09-19T06:55:45.089Z,100038.78
2018-09-19T06:58:12.641Z,100034.45
2018-09-19T07:00:40.642Z,100038.86
2018-09-19T07:03:08.199Z,100031.10
2018-09-19T07:05:35.775Z,100037.37
2018-09-19T07:08:03.783Z,100034.01
2018-09-19T07:10:31.338Z,100026.09
2018-09-19T07:12:58.971Z,100024.40
2018-09-19T07:15:26.906Z,100024.53
2018-09-19T07:17:54.716Z,100026.85
2018-09-19T07:20:22.256Z,100020.58
2018-09-19T07:22:50.252Z,100016.17
2018-09-19T07:25:17.800Z,100022.69
2018-09-19T07:27:45.349Z,100016.22
2018-09-19T07:30:13.372Z,100018.17
2018-09-19T07:32:43.775Z,100009.97
2018-09-19T07:35:14.321Z,100014.98
2018-09-19T07:37:43.734Z,100018.61
2018-09-19T07:40:12.969Z,100023.66
2018-09-19T07:42:40.509Z,100023.05
2018-09-19T07:45:08.484Z,100027.34
2018-09-19T07:47:36.825Z,100024.34
2018-09-19T07:50:04.353Z,100028.41
2018-09-19T07:52:33.105Z,100023.30
2018-09-19T07:55:00.657Z,100022.44
2018-09-19T07:57:29.510Z,100026.31
2018-09-19T07:59:58.643Z,100027.14
2018-09-19T08:02:31.153Z,100030.67
2018-09-19T08:04:58.991Z,100026.28
2018-09-19T08:07:27.094Z,100026.80
2018-09-19T08:09:54.608Z,100024.22
2018-09-19T08:12:22.468Z,100021.98
2018-09-19T08:14:49.988Z,100032.70
2018-09-19T08:17:17.520Z,100034.20
2018-09-19T08:19:45.350Z,100022.45
2018-09-19T08:22:13.127Z,100026.44
2018-09-19T08:24:40.639Z,100020.89
2018-09-19T08:27:09.266Z,100025.92
2018-09-19T08:29:36.904Z,100024.66
2018-09-19T08:32:04.663Z,100024.25
2018-09-19T08:34:32.669Z,100022.24
2018-09-19T08:37:00.392Z,100024.93
2018-09-19T08:39:31.512Z,100030.02
2018-09-19T08:41:59.539Z,100033.23
2018-09-19T08:44:27.043Z,100032.03
2018-09-19T08:46:54.538Z,100025.19
2018-09-19T08:49:22.432Z,100034.20
2018-09-19T08:51:49.988Z,100035.90
2018-09-19T08:54:17.522Z,100037.91
2018-09-19T08:56:46.073Z,100036.56
2018-09-19T08:59:13.619Z,100039.19
2018-09-19T09:01:45.838Z,100040.87
2018-09-19T09:04:16.831Z,100030.91
2018-09-19T09:06:44.375Z,100036.24
2018-09-19T09:09:14.998Z,100037.80
2018-09-19T09:11:45.581Z,100045.73
2018-09-19T09:14:13.112Z,100029.78
2018-09-19T09:16:40.687Z,100025.11
2018-09-19T09:19:10.841Z,100015.62
2018-09-19T09:21:38.371Z,100015.23
2018-09-19T09:24:05.868Z,100007.96
2018-09-19T09:26:33.694Z,100010.59
2018-09-19T09:29:03.905Z,100016.43
2018-09-19T09:31:31.428Z,100012.48
2018-09-19T09:33:59.236Z,100008.88
2018-09-19T09:36:27.752Z,99990.25
2018-09-19T09:38:55.342Z,99990.06
2018-09-19T09:41:23.171Z,99994.20
2018-09-19T09:43:50.734Z,100003.97
2018-09-19T09:46:18.499Z,99994.44
2018-09-19T09:48:46.394Z,99990.16
2018-09-19T09:51:14.618Z,99990.80
2018-09-19T09:53:43.859Z,100000.98
2018-09-19T09:56:11.782Z,99999.39
2018-09-19T09:58:39.560Z,99991.82
2018-09-19T10:01:07.302Z,99986.55
2018-09-19T10:03:35.297Z,99982.31
2018-09-19T10:06:03.447Z,99985.87
2018-09-19T10:08:32.467Z,99982.94
2018-09-19T10:11:00.580Z,99982.77
2018-09-19T10:13:29.869Z,99980.52
2018-09-19T10:15:57.769Z,99975.81
2018-09-19T10:18:27.836Z,99975.54
2018-09-19T10:20:55.333Z,99976.45
2018-09-19T10:23:22.840Z,99969.74
2018-09-19T10:25:51.420Z,99970.37
2018-09-19T10:28:20.642Z,99973.43
2018-09-19T10:30:48.172Z,99963.86
2018-09-19T10:33:16.148Z,99961.19
2018-09-19T10:35:44.287Z,99969.38
2018-09-19T10:38:11.823Z,99966.20
2018-09-19T10:40:39.621Z,99961.08
2018-09-19T10:43:07.155Z,99953.78
2018-09-19T10:45:34.714Z,99962.78
2018-09-19T10:48:07.545Z,99964.48
2018-09-19T10:50:37.167Z,99965.30
2018-09-19T10:53:04.735Z,99956.77
2018-09-19T10:55:34.592Z,99951.23
2018-09-19T10:58:02.249Z,99964.17
2018-09-19T11:00:30.304Z,99959.23
2018-09-19T11:02:59.273Z,99955.02
2018-09-19T11:05:26.817Z,99945.27
2018-09-19T11:07:54.298Z,99956.02
2018-09-19T11:10:22.231Z,99945.98
2018-09-19T11:12:49.790Z,99939.16
2018-09-19T11:15:17.372Z,99938.19
2018-09-19T11:17:45.386Z,99937.36
2018-09-19T11:20:13.625Z,99934.18
2018-09-19T11:22:41.137Z,99941.22
2018-09-19T11:25:09.612Z,99934.38
2018-09-19T11:27:39.737Z,99949.59
2018-09-19T11:30:07.687Z,99948.53
2018-09-19T11:32:35.664Z,99949.82
2018-09-19T11:35:03.750Z,99950.92
2018-09-19T11:37:31.247Z,99946.13
2018-09-19T11:39:59.169Z,99940.15
2018-09-19T11:42:27.305Z,99939.30
2018-09-19T11:44:55.427Z,99958.39
2018-09-19T11:47:23.320Z,99943.23
2018-09-19T11:49:50.884Z,99955.30
2018-09-19T11:52:18.407Z,99950.02
2018-09-19T11:54:48.366Z,99945.61
2018-09-19T11:57:16.965Z,99946.67
2018-09-19T11:59:44.464Z,99935.76
2018-09-19T12:02:12.460Z,99944.04
2018-09-19T12:04:41.399Z,99946.36
2018-09-19T12:07:10.049Z,99945.76
2018-09-19T12:09:37.995Z,99932.48
2018-09-19T12:12:05.482Z,99931.95
2018-09-19T12:14:33.716Z,99926.17
2018-09-19T12:17:01.582Z,99928.00
2018-09-19T12:19:29.772Z,99932.41
2018-09-19T12:21:57.338Z,99925.73
2018-09-19T12:24:25.274Z,99916.87
2018-09-19T12:26:53.528Z,99916.41
2018-09-19T12:29:21.104Z,99917.69
2018-09-19T12:31:51.629Z,99922.61
2018-09-19T12:34:19.143Z,99923.91
2018-09-19T12:36:46.664Z,99919.84
2018-09-19T12:39:15.154Z,99909.61
2018-09-19T12:41:43.676Z,99903.63
2018-09-19T12:44:11.186Z,99898.48
2018-09-19T12:46:40.024Z,99906.83
2018-09-19T12:49:07.661Z,99906.39
2018-09-19T12:51:35.254Z,99908.44
2018-09-19T12:54:04.321Z,99906.61
2018-09-19T12:56:31.907Z,99904.33
2018-09-19T12:59:00.571Z,99902.03
2018-09-19T13:01:29.558Z,99904.55
2018-09-19T13:03:58.317Z,99898.19
2018-09-19T13:06:26.319Z,99898.59
2018-09-19T13:08:54.619Z,99900.72
2018-09-19T13:11:22.926Z,99911.16
2018-09-19T13:13:51.714Z,99904.11
2018-09-19T13:16:19.209Z,99900.61
2018-09-19T13:18:46.740Z,99896.38
2018-09-19T13:21:15.459Z,99889.84
2018-09-19T13:23:42.947Z,99890.02
2018-09-19T13:26:10.434Z,99894.27
2018-09-19T13:28:38.606Z,99890.31
2018-09-19T13:31:06.306Z,99890.94
2018-09-19T13:33:33.833Z,99888.30
2018-09-19T13:36:01.712Z,99885.89
2018-09-19T13:38:30.254Z,99884.23
2018-09-19T13:40:57.773Z,99875.66
2018-09-19T13:43:27.451Z,99884.13
2018-09-19T13:45:55.028Z,99879.77
2018-09-19T13:48:23.155Z,99864.67
2018-09-19T13:50:51.269Z,99865.77
2018-09-19T13:53:22.408Z,99857.75
2018-09-19T13:55:51.905Z,99844.49
2018-09-19T13:58:19.791Z,99841.32
2018-09-19T14:00:47.858Z,99842.81
2018-09-19T14:03:15.488Z,99846.62
2018-09-19T14:05:44.144Z,99845.53
2018-09-19T14:08:12.324Z,99842.94
2018-09-19T14:10:41.322Z,99850.70
2018-09-19T14:13:10.688Z,99861.80
2018-09-19T14:15:39.923Z,99850.84
2018-09-19T14:18:07.511Z,99844.19
2018-09-19T14:20:36.192Z,99840.88
2018-09-19T14:23:04.644Z,99849.97
2018-09-19T14:25:33.267Z,99849.12
2018-09-19T14:28:01.242Z,99837.90
2018-09-19T14:30:28.802Z,99839.67
2018-09-19T14:32:56.609Z,99846.70
2018-09-19T14:35:24.596Z,99839.83
2018-09-19T14:37:52.127Z,99835.37
2018-09-19T14:40:21.891Z,99834.81
2018-09-19T14:42:52.258Z,99829.16
2018-09-19T14:45:19.821Z,99817.64
2018-09-19T14:47:47.466Z,99818.41
2018-09-19T14:50:16.166Z,99818.12
2018-09-19T14:52:43.976Z,99828.64
2018-09-19T14:55:11.756Z,99823.66
2018-09-19T14:57:39.642Z,99826.64
2018-09-19T15:00:09.980Z,99826.91
2018-09-19T15:02:37.569Z,99836.19
2018-09-19T15:05:06.099Z,99831.56
2018-09-19T15:07:33.784Z,99821.16
2018-09-19T15:10:02.372Z,99821.20
2018-09-19T15:12:31.932Z,99825.13
2018-09-19T15:14:59.469Z,99819.34
2018-09-19T15:17:27.012Z,99823.23
2018-09-19T15:19:55.508Z,99821.30
2018-09-19T15:22:23.746Z,99823.50
2018-09-19T15:24:51.330Z,99831.41
2018-09-19T15:27:19.179Z,99826.39
2018-09-19T15:29:47.689Z,99822.67
2018-09-19T15:32:19.574Z,99841.81
2018-09-19T15:34:48.537Z,99836.27
2018-09-19T15:37:16.730Z,99831.20
2018-09-19T15:39:45.047Z,99829.90
2018-09-19T15:42:12.924Z,99825.45
2018-09-19T15:44:40.471Z,99820.42
2018-09-19T15:47:09.946Z,99828.47
2018-09-19T15:49:38.048Z,99820.80
2018-09-19T15:52:05.567Z,99815.66
2018-09-19T15:54:33.121Z,99818.48
2018-09-19T15:57:01.187Z,99834.03
2018-09-19T15:59:28.671Z,99839.51
2018-09-19T16:01:58.991Z,99842.23
2018-09-19T16:04:27.651Z,99839.84
2018-09-19T16:06:55.949Z,99846.34
2018-09-19T16:09:23.541Z,99848.72
2018-09-19T16:11:53.202Z,99846.52
2018-09-19T16:14:20.695Z,99845.72
2018-09-19T16:16:48.430Z,99844.95
2018-09-19T16:19:17.358Z,99842.47
2018-09-19T16:21:46.017Z,99848.02
2018-09-19T16:24:14.280Z,99851.93
2018-09-19T16:26:43.943Z,99852.58
2018-09-19T16:29:11.711Z,99851.63
2018-09-19T16:31:39.290Z,99851.48
2018-09-19T16:34:10.083Z,99849.46
2018-09-19T16:36:37.598Z,99844.70
2018-09-19T16:39:05.919Z,99855.58
2018-09-19T16:41:33.887Z,99852.73
2018-09-19T16:44:02.141Z,99853.44
2018-09-19T16:46:29.630Z,99854.34
2018-09-19T16:48:57.477Z,99854.49
2018-09-19T16:51:26.314Z,99857.05
2018-09-19T16:53:54.686Z,99855.53
2018-09-19T16:56:24.128Z,99861.86
2018-09-19T16:58:52.406Z,99859.23
2018-09-19T17:01:19.946Z,99859.33
2018-09-19T17:03:49.612Z,99861.55
2018-09-19T17:06:17.185Z,99863.53
2018-09-19T17:08:52.428Z,99864.66
2018-09-19T17:11:21.611Z,99870.37
2018-09-19T17:13:49.437Z,99869.02
2018-09-19T17:16:19.656Z,99869.16
2018-09-19T17:18:48.059Z,99874.84
2018-09-19T17:21:16.241Z,99878.40
2018-09-19T17:23:43.743Z,99886.08
2018-09-19T17:26:11.662Z,99886.77
2018-09-19T17:31:02.541Z,99891.73
2018-09-19T17:33:30.905Z,99894.94
2018-09-19T17:35:58.471Z,99898.03
2018-09-19T17:38:26.634Z,99897.47
2018-09-19T17:40:54.538Z,99900.98
2018-09-19T17:43:22.514Z,99903.59
2018-09-19T17:45:50.037Z,99911.11
2018-09-19T17:48:17.906Z,99914.01
2018-09-19T17:50:45.418Z,99916.14
2018-09-19T17:53:13.647Z,99923.22
2018-09-19T17:55:42.178Z,99926.51
2018-09-19T17:58:09.666Z,99929.73
2018-09-19T18:00:41.447Z,99934.13
2018-09-19T18:03:09.442Z,99939.42
2018-09-19T18:05:37.863Z,99936.97
2018-09-19T18:08:05.511Z,99937.63
2018-09-19T18:10:33.464Z,99936.50
2018-09-19T18:13:00.976Z,99941.55
2018-09-19T18:15:28.483Z,99942.70
2018-09-19T18:17:56.524Z,99938.81
2018-09-19T18:20:24.867Z,99944.30
2018-09-19T18:22:52.372Z,99951.22
2018-09-19T18:25:21.307Z,99954.38
2018-09-19T18:27:48.846Z,99957.44
2018-09-19T18:30:16.355Z,99968.33
2018-09-19T18:32:44.265Z,99964.81
2018-09-19T18:35:11.771Z,99972.15
2018-09-19T18:37:39.264Z,99969.10
2018-09-19T18:40:08.503Z,99969.28
2018-09-19T18:42:37.320Z,99978.52
2018-09-19T18:45:05.812Z,99980.41
2018-09-19T18:47:33.807Z,99985.52
2018-09-19T18:50:01.336Z,99988.95
2018-09-19T18:52:29.454Z,99991.48
2018-09-19T18:54:57.429Z,99997.23
2018-09-19T18:57:24.931Z,100010.07
2018-09-19T18:59:53.485Z,100007.66
2018-09-19T19:02:21.481Z,100008.47
2018-09-19T19:04:50.088Z,100014.22
2018-09-19T19:07:17.604Z,100018.77
2018-09-19T19:09:46.489Z,100031.51
2018-09-19T19:12:16.602Z,100028.97
2018-09-19T19:14:46.613Z,100032.72
2018-09-19T19:17:19.490Z,100033.02
2018-09-19T19:19:46.987Z,100038.33
2018-09-19T19:22:14.561Z,100038.28
2018-09-19T19:24:42.558Z,100042.46
2018-09-19T19:27:11.586Z,100046.73
2018-09-19T19:29:40.382Z,100053.09
2018-09-19T19:32:08.189Z,100050.16
2018-09-19T19:34:35.686Z,100050.95
2018-09-19T19:37:03.678Z,100058.84
2018-09-19T19:39:32.671Z,100062.33
2018-09-19T19:42:01.101Z,100060.08
2018-09-19T19:44:28.609Z,100062.26
2018-09-19T19:46:56.563Z,100059.66
2018-09-19T19:49:25.456Z,100062.47
2018-09-19T19:51:53.815Z,100064.11
2018-09-19T19:54:21.647Z,100068.77
2018-09-19T19:56:49.156Z,100072.08
2018-09-19T19:59:17.632Z,100076.20
2018-09-19T20:01:46.039Z,100083.19
2018-09-19T20:04:14.096Z,100087.02
2018-09-19T20:06:42.114Z,100078.93
2018-09-19T20:09:10.364Z,100081.91
2018-09-19T20:11:38.214Z,100089.74
2018-09-19T20:14:06.541Z,100096.08
2018-09-19T20:16:37.465Z,100088.30
2018-09-19T20:19:04.910Z,100087.27
2018-09-19T20:21:32.649Z,100089.02
2018-09-19T20:24:00.541Z,100091.25
2018-09-19T20:26:27.984Z,100086.22
2018-09-19T20:28:57.169Z,100090.88
2018-09-19T20:31:25.045Z,100087.38
2018-09-19T20:33:52.446Z,100090.47
2018-09-19T20:36:21.460Z,100088.65
2018-09-19T20:38:49.250Z,100090.91
2018-09-19T20:41:16.750Z,100097.77
2018-09-19T20:43:44.315Z,100100.52
2018-09-19T20:46:12.230Z,100103.31
2018-09-19T20:48:39.679Z,100103.89
2018-09-19T20:51:07.817Z,100110.71
2018-09-19T20:53:35.671Z,100111.78
2018-09-19T20:56:04.230Z,100116.11
2018-09-19T20:58:32.362Z,100127.20
2018-09-19T21:01:01.095Z,100120.00
2018-09-19T21:03:28.556Z,100127.70
2018-09-19T21:05:56.552Z,100119.20
2018-09-19T21:08:23.986Z,100130.63
2018-09-19T21:10:51.511Z,100129.94
2018-09-19T21:13:19.479Z,100137.17
2018-09-19T21:15:48.226Z,100135.76
2018-09-19T21:18:15.744Z,100139.22
2018-09-19T21:20:43.590Z,100143.56
2018-09-19T21:23:11.527Z,100130.73
2018-09-19T21:25:40.162Z,100138.43
2018-09-19T21:28:09.441Z,100145.27
2018-09-19T21:30:37.913Z,100142.09
2018-09-19T21:33:05.379Z,100146.55
2018-09-19T21:35:33.246Z,100137.98
2018-09-19T21:38:01.465Z,100143.25
2018-09-19T21:40:29.731Z,100146.70
2018-09-19T21:43:01.410Z,100152.49
2018-09-19T21:45:29.838Z,100158.94
2018-09-19T21:47:57.294Z,100158.62
2018-09-19T21:50:25.150Z,100158.50
2018-09-19T21:52:52.638Z,100157.31
2018-09-19T21:55:20.168Z,100159.53
2018-09-19T21:57:47.999Z,100162.07
2018-09-19T22:00:15.579Z,100163.27
2018-09-19T22:02:43.863Z,100160.92
2018-09-19T22:05:11.883Z,100161.78
2018-09-19T22:07:39.448Z,100156.38
2018-09-19T22:12:41.122Z,100155.92
2018-09-19T22:15:09.235Z,100151.70
2018-09-19T22:17:37.417Z,100152.39
2018-09-19T22:20:06.217Z,100149.00
2018-09-19T22:22:36.959Z,100146.82
2018-09-19T22:25:05.588Z,100150.88
2018-09-19T22:27:33.508Z,100153.91
2018-09-19T22:30:01.003Z,100155.09
2018-09-19T22:32:28.573Z,100156.08
2018-09-19T22:34:57.233Z,100152.19
2018-09-19T22:37:25.730Z,100150.52
2018-09-19T22:39:53.289Z,100148.30
2018-09-19T22:42:21.308Z,100148.50
2018-09-19T22:44:50.004Z,100146.79
2018-09-19T22:47:18.061Z,100142.73
2018-09-19T22:49:47.562Z,100140.03
2018-09-19T22:52:16.698Z,100138.68
2018-09-19T22:54:44.507Z,100134.98
2018-09-19T22:57:12.376Z,100140.89
2018-09-19T22:59:39.950Z,100136.83
2018-09-19T23:02:07.455Z,100131.59
2018-09-19T23:04:35.484Z,100128.23
2018-09-19T23:07:03.026Z,100130.28
2018-09-19T23:09:30.515Z,100129.59
2018-09-19T23:11:58.304Z,100132.16
2018-09-19T23:14:26.672Z,100130.48
2018-09-19T23:16:54.215Z,100130.67
2018-09-19T23:19:22.142Z,100129.69
2018-09-19T23:21:49.664Z,100133.07
2018-09-19T23:24:17.158Z,100132.24
2018-09-19T23:26:45.128Z,100128.19
2018-09-19T23:29:12.643Z,100134.28
2018-09-19T23:31:40.158Z,100133.62
2018-09-19T23:34:07.699Z,100130.06
2018-09-19T23:36:35.599Z,100135.46
2018-09-19T23:39:03.241Z,100135.79
2018-09-19T23:41:30.752Z,100136.81
2018-09-19T23:43:58.656Z,100131.23
2018-09-19T23:46:26.224Z,100123.50
2018-09-19T23:48:53.715Z,100124.31
2018-09-19T23:51:22.164Z,100115.05
2018-09-19T23:53:49.685Z,100116.39
2018-09-19T23:56:18.619Z,100117.77
2018-09-19T23:58:46.595Z,100112.19
